Time;durP1;ratioP1;P1;durP2;ratioP2;P2;SDS_P1;SDS_P2;PMS_P1;PMS_P2;Temp;Humidity;BMP_temperature;BMP_pressure;BME280_temperature;BME280_humidity;BME280_pressure;Samples;Min_cycle;Max_cycle;Signal;HPM_P1;HPM_P2
2022/04/14 00:01:25;;;;;;;7.05;4.80;;;9.00;79.40;;;;;;5036480;28;20033;-68
2022/04/14 00:04:50;;;;;;;9.40;4.85;;;9.00;79.90;;;;;;5034684;28;20045;-68
2022/04/14 00:08:16;;;;;;;10.98;5.25;;;9.00;78.70;;;;;;5027746;28;20037;-67
2022/04/14 00:11:41;;;;;;;7.32;4.95;;;8.90;79.00;;;;;;5036016;28;20502;-68
2022/04/14 00:15:06;;;;;;;9.40;5.00;;;8.90;80.20;;;;;;5009498;28;20037;-68
2022/04/14 00:18:32;;;;;;;8.07;5.25;;;8.90;81.70;;;;;;5045221;28;20045;-68
2022/04/14 00:21:57;;;;;;;9.63;5.00;;;8.90;79.40;;;;;;5041302;28;20037;-68
2022/04/14 00:24:43;;;;;;;13.00;5.97;;;8.90;82.00;;;;;;5011590;28;20549;-67
2022/04/14 00:27:08;;;;;;;9.45;5.60;;;8.90;77.50;;;;;;5049044;28;20116;-68
2022/04/14 00:29:34;;;;;;;11.55;4.82;;;8.90;77.10;;;;;;5046582;28;20021;-68
2022/04/14 00:31:59;;;;;;;10.10;5.53;;;8.90;78.90;;;;;;5049304;28;20127;-68
2022/04/14 00:34:25;;;;;;;11.27;5.15;;;8.90;77.80;;;;;;5044058;28;20067;-68
2022/04/14 00:36:50;;;;;;;10.73;4.90;;;8.80;79.30;;;;;;5041820;28;20047;-68
2022/04/14 00:39:16;;;;;;;10.43;6.10;;;8.80;80.40;;;;;;5048581;28;20037;-62
2022/04/14 00:41:42;;;;;;;8.88;5.00;;;8.70;81.30;;;;;;5035281;28;20041;-62
2022/04/14 00:44:08;;;;;;;12.02;6.50;;;8.60;81.80;;;;;;5048284;28;20086;-62
2022/04/14 00:46:33;;;;;;;9.70;5.57;;;8.60;83.00;;;;;;5027139;28;20033;-62
2022/04/14 00:48:59;;;;;;;8.25;5.97;;;8.50;84.50;;;;;;5040850;28;20048;-62
2022/04/14 00:51:24;;;;;;;11.07;6.15;;;8.40;85.10;;;;;;5046444;28;20480;-63
2022/04/14 00:53:50;;;;;;;9.13;5.22;;;8.30;86.40;;;;;;5047672;28;20028;-62
2022/04/14 00:56:15;;;;;;;10.20;6.13;;;8.20;87.30;;;;;;5032725;28;20044;-62
2022/04/14 00:58:41;;;;;;;11.93;5.82;;;8.20;90.10;;;;;;5030151;28;20060;-62
2022/04/14 01:01:07;;;;;;;11.43;6.60;;;8.10;90.90;;;;;;5027398;28;20033;-62
2022/04/14 01:04:12;;;;;;;12.25;6.30;;;8.10;91.10;;;;;;5049829;28;20033;-62
2022/04/14 01:07:38;;;;;;;8.93;6.13;;;8.10;93.30;;;;;;5041272;28;20075;-62
2022/04/14 01:11:06;;;;;;;11.38;6.30;;;8.00;95.70;;;;;;5047448;28;20033;-62
2022/04/14 01:14:38;;;;;;;13.82;6.38;;;8.00;98.20;;;;;;5038900;28;20033;-62
2022/04/14 01:18:03;;;;;;;11.02;5.97;;;8.00;95.90;;;;;;5030741;28;20029;-62
2022/04/14 01:21:28;;;;;;;11.23;5.93;;;7.90;93.60;;;;;;5038599;28;20070;-62
2022/04/14 01:24:54;;;;;;;9.85;5.78;;;7.90;93.80;;;;;;5047592;28;20045;-62
2022/04/14 01:28:19;;;;;;;10.57;6.07;;;7.80;99.50;;;;;;5042024;28;20036;-62
2022/04/14 01:31:44;;;;;;;11.82;6.63;;;7.80;97.10;;;;;;5016448;28;20075;-62
2022/04/14 01:35:10;;;;;;;11.38;6.40;;;7.70;95.10;;;;;;5007810;28;20525;-62
2022/04/14 01:38:38;;;;;;;8.18;5.68;;;7.70;96.30;;;;;;5036205;28;20049;-62
2022/04/14 01:42:00;;;;;;;12.38;6.70;;;7.70;99.20;;;;;;5037242;28;20103;-61
2022/04/14 01:45:26;;;;;;;15.77;8.10;;;7.70;98.80;;;;;;5035912;28;20037;-62
2022/04/14 01:48:51;;;;;;;13.70;7.40;;;7.70;96.10;;;;;;5041913;28;20091;-62
2022/04/14 01:52:18;;;;;;;14.15;7.45;;;7.70;96.30;;;;;;5023949;28;20045;-62
2022/04/14 01:55:45;;;;;;;14.68;7.22;;;7.70;97.40;;;;;;5035187;28;20404;-62
2022/04/14 01:59:11;;;;;;;12.88;6.60;;;7.60;99.90;;;;;;5035563;28;20044;-62
2022/04/14 02:02:36;;;;;;;14.02;6.80;;;7.60;99.90;;;;;;5032761;28;20113;-62
2022/04/14 02:06:01;;;;;;;14.57;7.35;;;7.60;99.90;;;;;;5041869;28;20567;-62
2022/04/14 02:09:27;;;;;;;13.43;7.05;;;7.60;99.50;;;;;;5043243;28;20035;-62
2022/04/14 02:12:52;;;;;;;14.65;6.72;;;7.50;99.30;;;;;;5026927;28;20037;-62
2022/04/14 02:16:17;;;;;;;17.27;8.88;;;7.50;99.90;;;;;;5044212;28;20052;-62
2022/04/14 02:19:03;;;;;;;13.45;6.07;;;7.50;98.40;;;;;;5035835;28;20091;-64
2022/04/14 02:21:28;;;;;;;14.07;8.02;;;7.40;99.90;;;;;;5045162;28;20127;-64
2022/04/14 02:23:54;;;;;;;15.13;7.38;;;7.40;99.90;;;;;;5031750;28;20389;-64
2022/04/14 02:26:19;;;;;;;13.73;7.78;;;7.40;99.90;;;;;;5046686;28;20186;-64
2022/04/14 02:28:45;;;;;;;15.77;7.13;;;7.30;99.90;;;;;;5043750;28;20029;-64
2022/04/14 02:31:11;;;;;;;17.17;8.02;;;7.30;99.90;;;;;;5046728;28;20037;-64
2022/04/14 02:34:16;;;;;;;11.05;6.60;;;7.20;99.90;;;;;;5044412;28;20029;-64
2022/04/14 02:37:42;;;;;;;11.60;7.18;;;7.10;99.90;;;;;;5029405;28;20041;-64
2022/04/14 02:41:07;;;;;;;13.73;7.40;;;7.10;99.90;;;;;;5034699;28;20036;-64
2022/04/14 02:44:32;;;;;;;10.68;5.80;;;7.00;99.90;;;;;;5025741;28;20532;-64
2022/04/14 02:47:58;;;;;;;11.18;5.63;;;6.90;99.90;;;;;;5040527;28;20041;-63
2022/04/14 02:51:23;;;;;;;11.07;6.05;;;6.90;99.90;;;;;;5044395;28;20564;-64
2022/04/14 02:54:49;;;;;;;10.90;6.07;;;6.80;99.90;;;;;;5037017;28;20044;-64
2022/04/14 02:58:14;;;;;;;12.30;7.30;;;6.70;99.90;;;;;;5044855;28;20041;-64
2022/04/14 03:01:39;;;;;;;11.07;6.68;;;6.80;99.90;;;;;;5046925;28;20033;-64
2022/04/14 03:05:05;;;;;;;11.30;6.80;;;6.70;99.90;;;;;;5023705;28;20091;-64
2022/04/14 03:08:30;;;;;;;11.90;6.68;;;6.70;99.90;;;;;;5039609;28;20044;-64
2022/04/14 03:11:55;;;;;;;9.05;5.55;;;6.60;99.90;;;;;;5044902;28;20067;-64
2022/04/14 03:15:21;;;;;;;10.25;6.55;;;6.60;99.90;;;;;;5029008;28;20429;-64
2022/04/14 03:18:46;;;;;;;8.25;5.10;;;6.60;99.90;;;;;;5035227;28;20053;-64
2022/04/14 03:22:11;;;;;;;13.48;6.63;;;6.60;99.90;;;;;;5033949;28;20030;-64
2022/04/14 03:25:37;;;;;;;11.80;5.85;;;6.60;99.90;;;;;;5043161;28;20123;-64
2022/04/14 03:29:02;;;;;;;10.02;5.80;;;6.80;99.90;;;;;;5038848;28;20396;-64
2022/04/14 03:32:27;;;;;;;10.75;6.70;;;6.90;99.90;;;;;;5032667;28;20033;-64
2022/04/14 03:35:53;;;;;;;10.20;6.50;;;7.00;99.90;;;;;;5047368;28;20048;-64
2022/04/14 03:39:18;;;;;;;14.60;8.05;;;7.10;99.90;;;;;;5038999;28;20032;-64
2022/04/14 03:42:44;;;;;;;11.27;5.95;;;7.20;99.90;;;;;;5012305;28;20034;-64
2022/04/14 03:46:09;;;;;;;9.30;6.07;;;7.20;99.90;;;;;;5040758;28;20037;-64
2022/04/14 03:49:34;;;;;;;10.05;6.25;;;7.30;99.90;;;;;;5025482;28;20589;-64
2022/04/14 03:53:00;;;;;;;8.93;5.70;;;7.40;99.90;;;;;;5045783;28;20048;-63
2022/04/14 03:56:25;;;;;;;10.88;6.13;;;7.50;99.90;;;;;;5045615;28;20043;-63
2022/04/14 03:59:50;;;;;;;10.57;6.88;;;7.60;99.90;;;;;;5029108;28;20041;-63
2022/04/14 04:03:16;;;;;;;11.35;7.35;;;7.60;99.90;;;;;;5047990;28;20047;-64
2022/04/14 04:06:41;;;;;;;10.52;6.85;;;7.50;99.90;;;;;;5031949;28;20502;-64
2022/04/14 04:10:07;;;;;;;17.95;6.20;;;7.60;99.90;;;;;;5035786;28;20036;-64
2022/04/14 04:13:32;;;;;;;11.77;6.82;;;7.40;99.90;;;;;;5011811;28;20038;-64
2022/04/14 04:16:57;;;;;;;12.57;7.53;;;7.40;99.90;;;;;;5029681;28;20156;-64
2022/04/14 04:20:23;;;;;;;10.13;7.22;;;7.30;99.90;;;;;;5046051;28;20029;-63
2022/04/14 04:23:48;;;;;;;12.00;7.07;;;7.30;99.90;;;;;;5011645;28;20515;-63
2022/04/14 04:27:13;;;;;;;6.63;5.13;;;7.30;99.90;;;;;;5040386;28;20045;-63
2022/04/14 04:30:40;;;;;;;8.63;6.20;;;7.30;99.90;;;;;;5045767;28;20040;-63
2022/04/14 04:34:04;;;;;;;9.38;6.40;;;7.40;99.90;;;;;;5011489;28;20045;-64
2022/04/14 04:37:29;;;;;;;8.57;6.15;;;7.60;99.90;;;;;;5039613;28;20052;-64
2022/04/14 04:40:58;;;;;;;10.07;6.47;;;7.70;99.90;;;;;;5028693;28;20378;-64
2022/04/14 04:44:20;;;;;;;12.52;6.05;;;7.90;99.90;;;;;;5038396;28;20033;-63
2022/04/14 04:47:46;;;;;;;12.38;6.95;;;8.20;99.90;;;;;;5034986;28;20490;-63
2022/04/14 04:51:11;;;;;;;13.40;8.00;;;8.60;99.90;;;;;;5048163;28;20053;-64
2022/04/14 04:54:36;;;;;;;11.93;7.43;;;8.90;99.90;;;;;;5045274;28;20063;-63
2022/04/14 04:58:02;;;;;;;12.65;8.40;;;9.30;97.50;;;;;;5027370;28;20037;-64
2022/04/14 05:01:27;;;;;;;13.38;8.25;;;9.70;97.50;;;;;;5040622;28;20443;-63
2022/04/14 05:04:52;;;;;;;16.38;10.20;;;10.20;96.70;;;;;;5044790;28;20048;-63
2022/04/14 05:08:18;;;;;;;19.02;10.68;;;10.60;94.10;;;;;;5032155;28;20541;-63
2022/04/14 05:11:43;;;;;;;15.35;10.15;;;11.00;96.70;;;;;;5039229;28;20029;-66
2022/04/14 05:15:08;;;;;;;15.50;10.98;;;11.40;93.50;;;;;;5050402;28;20037;-66
2022/04/14 05:18:34;;;;;;;17.25;10.05;;;11.80;92.70;;;;;;5038673;28;20110;-66
2022/04/14 05:22:01;;;;;;;15.98;10.55;;;12.10;92.80;;;;;;5037014;28;20061;-65
2022/04/14 05:25:25;;;;;;;21.00;10.55;;;12.40;92.20;;;;;;5010625;28;20452;-66
2022/04/14 05:28:50;;;;;;;13.50;9.57;;;12.80;90.10;;;;;;5042902;28;20143;-65
2022/04/14 05:32:15;;;;;;;13.30;9.40;;;13.10;87.20;;;;;;5036911;28;20060;-65
2022/04/14 05:35:43;;;;;;;15.45;9.85;;;13.30;87.90;;;;;;5031582;28;20120;-65
2022/04/14 05:39:06;;;;;;;20.98;9.45;;;13.30;85.80;;;;;;5045403;28;20044;-65
2022/04/14 05:42:31;;;;;;;11.70;7.82;;;13.40;87.60;;;;;;5044113;28;20029;-65
2022/04/14 05:45:57;;;;;;;10.43;6.78;;;13.40;88.40;;;;;;5010229;28;20038;-65
2022/04/14 05:49:22;;;;;;;9.68;6.68;;;13.50;87.00;;;;;;5042445;28;20026;-65
2022/04/14 05:52:47;;;;;;;9.02;6.10;;;13.60;87.40;;;;;;5025248;28;20029;-66
2022/04/14 05:56:13;;;;;;;13.95;7.40;;;13.70;86.80;;;;;;5038359;28;20411;-66
2022/04/14 05:59:38;;;;;;;12.02;6.65;;;13.70;86.20;;;;;;5043922;28;20037;-66
2022/04/14 06:03:04;;;;;;;13.77;6.75;;;13.80;86.40;;;;;;5025641;28;20531;-66
2022/04/14 06:06:29;;;;;;;10.45;6.70;;;13.90;85.70;;;;;;5019169;28;20042;-66
2022/04/14 06:09:54;;;;;;;11.50;6.38;;;14.00;85.10;;;;;;5041748;28;20493;-65
2022/04/14 06:13:20;;;;;;;14.48;8.63;;;14.20;85.40;;;;;;5026809;28;20037;-66
2022/04/14 06:16:45;;;;;;;16.48;7.38;;;14.50;83.50;;;;;;5042392;28;20048;-65
2022/04/14 06:20:10;;;;;;;12.20;7.18;;;15.10;78.80;;;;;;5029167;28;20037;-65
2022/04/14 06:23:36;;;;;;;14.75;7.68;;;15.90;70.60;;;;;;5030556;28;20033;-66
2022/04/14 06:27:01;;;;;;;16.10;6.93;;;16.80;64.30;;;;;;5037776;28;20106;-65
2022/04/14 06:30:27;;;;;;;10.43;5.85;;;17.70;55.50;;;;;;5025516;28;20667;-66
2022/04/14 06:33:52;;;;;;;11.88;7.00;;;18.60;50.30;;;;;;5046719;28;20037;-66
2022/04/14 06:37:17;;;;;;;11.00;6.75;;;18.80;45.10;;;;;;5042264;28;20051;-65
2022/04/14 06:40:03;;;;;;;13.45;7.03;;;18.70;48.80;;;;;;5030578;28;20049;-66
2022/04/14 06:42:29;;;;;;;11.25;6.85;;;18.30;52.50;;;;;;5036850;28;20056;-66
2022/04/14 06:44:59;;;;;;;9.95;6.80;;;18.10;53.50;;;;;;5043883;28;20500;-66
2022/04/14 06:47:27;;;;;;;9.75;6.47;;;18.00;52.80;;;;;;5046455;28;20041;-66
2022/04/14 06:49:54;;;;;;;10.32;5.80;;;18.10;53.90;;;;;;5039254;28;20051;-66
2022/04/14 06:52:20;;;;;;;9.95;6.25;;;18.50;52.80;;;;;;5046992;28;20080;-65
2022/04/14 06:54:46;;;;;;;8.75;5.80;;;19.00;49.60;;;;;;5036638;28;20036;-66
2022/04/14 06:57:12;;;;;;;10.55;5.55;;;19.90;47.60;;;;;;5032399;28;20037;-65
2022/04/14 06:59:37;;;;;;;10.40;5.78;;;20.80;43.10;;;;;;5029209;28;20033;-66
2022/04/14 07:02:43;;;;;;;10.90;4.82;;;21.90;39.40;;;;;;5035886;28;20204;-67
2022/04/14 07:06:08;;;;;;;8.77;5.93;;;23.10;32.00;;;;;;5013023;28;20401;-66
2022/04/14 07:09:34;;;;;;;8.93;5.32;;;24.60;26.80;;;;;;5041777;28;20037;-67
2022/04/14 07:12:59;;;;;;;8.63;4.78;;;26.00;22.30;;;;;;5028255;28;20033;-66
2022/04/14 07:16:25;;;;;;;7.25;4.88;;;26.80;18.10;;;;;;5012750;28;20084;-66
2022/04/14 07:19:50;;;;;;;7.32;4.07;;;27.80;18.30;;;;;;5050089;28;20037;-65
2022/04/14 07:23:21;;;;;;;6.88;5.50;;;28.70;17.30;;;;;;5046786;28;20048;-65
2022/04/14 07:26:47;;;;;;;5.10;3.88;;;29.10;17.90;;;;;;5013007;28;20121;-66
2022/04/14 07:30:12;;;;;;;5.53;4.25;;;29.00;13.60;;;;;;5048640;28;20063;-66
2022/04/14 07:33:37;;;;;;;6.78;4.70;;;28.70;13.80;;;;;;5035718;28;20494;-66
2022/04/14 07:37:03;;;;;;;6.85;4.63;;;28.60;14.90;;;;;;5040936;28;20049;-65
2022/04/14 07:40:28;;;;;;;7.25;4.75;;;28.50;13.40;;;;;;5046541;28;20222;-66
2022/04/14 07:43:53;;;;;;;4.47;3.40;;;29.20;13.50;;;;;;5027550;28;20041;-66
2022/04/14 07:47:19;;;;;;;3.67;3.17;;;30.30;10.40;;;;;;5041181;28;20072;-66
2022/04/14 07:50:44;;;;;;;6.38;4.07;;;31.10;9.90;;;;;;5039655;28;20052;-66
2022/04/14 07:54:10;;;;;;;5.25;3.40;;;32.20;10.10;;;;;;5024006;28;20095;-66
2022/04/14 07:57:35;;;;;;;4.18;3.42;;;32.60;9.00;;;;;;5037287;28;20076;-65
2022/04/14 08:01:00;;;;;;;6.13;3.92;;;33.00;6.70;;;;;;5033633;28;20707;-66
2022/04/14 08:04:26;;;;;;;4.05;3.65;;;33.30;7.10;;;;;;5040749;28;20128;-66
2022/04/14 08:07:51;;;;;;;7.93;5.75;;;32.40;4.60;;;;;;5036835;28;20562;-66
2022/04/14 08:11:16;;;;;;;5.82;3.60;;;32.00;6.50;;;;;;5010845;28;20042;-66
2022/04/14 08:14:42;;;;;;;5.45;4.25;;;31.10;7.20;;;;;;5046642;28;20033;-66
2022/04/14 08:18:07;;;;;;;5.57;3.40;;;30.80;7.40;;;;;;5019091;28;20061;-66
2022/04/14 08:21:32;;;;;;;6.38;3.53;;;30.40;8.10;;;;;;5010670;28;20045;-66
2022/04/14 08:24:58;;;;;;;7.82;4.43;;;30.20;8.60;;;;;;5039284;28;20399;-65
2022/04/14 08:28:23;;;;;;;5.85;4.60;;;29.90;8.70;;;;;;5029929;28;20030;-66
2022/04/14 08:31:49;;;;;;;10.30;4.47;;;29.30;9.40;;;;;;5046549;28;20044;-66
2022/04/14 08:35:14;;;;;;;5.57;4.25;;;28.50;11.20;;;;;;5044435;28;20058;-66
2022/04/14 08:38:39;;;;;;;8.40;5.15;;;28.60;10.90;;;;;;5033008;28;20046;-66
2022/04/14 08:42:05;;;;;;;9.70;4.30;;;28.30;11.30;;;;;;5044020;28;20045;-65
2022/04/14 08:45:33;;;;;;;4.75;4.03;;;28.20;11.50;;;;;;5047731;28;20021;-66
2022/04/14 08:51:44;;;;;;;;;;;28.00;11.40;;;;;;5066666;28;20483;-66
2022/04/14 08:55:10;;;;;;;6.70;3.50;;;28.30;11.10;;;;;;5068814;28;20376;-65
2022/04/14 08:58:35;;;;;;;4.75;3.20;;;29.00;10.40;;;;;;5082935;28;20040;-66
2022/04/14 09:02:00;;;;;;;6.70;4.28;;;29.50;9.40;;;;;;5080749;28;20399;-66
2022/04/14 09:05:26;;;;;;;5.47;3.38;;;29.70;8.90;;;;;;5078658;28;20042;-66
2022/04/14 09:08:51;;;;;;;3.28;2.70;;;29.40;8.70;;;;;;5075598;28;20496;-66
2022/04/14 09:12:16;;;;;;;4.18;2.83;;;29.60;8.70;;;;;;5066876;28;20041;-62
2022/04/14 09:15:51;;;;;;;4.93;3.47;;;29.90;8.80;;;;;;5074105;28;20376;-59
2022/04/14 09:19:20;;;;;;;4.40;2.75;;;29.60;8.80;;;;;;5064989;28;20041;-60
2022/04/14 09:22:48;;;;;;;3.75;2.92;;;29.50;8.80;;;;;;5056367;28;20041;-60
2022/04/14 09:26:02;;;;;;;4.07;3.20;;;29.50;9.00;;;;;;5067729;28;20116;-59
2022/04/14 09:29:40;;;;;;;3.05;2.75;;;30.10;7.80;;;;;;5054317;28;20388;-59
2022/04/14 09:33:05;;;;;;;5.65;3.65;;;29.70;8.30;;;;;;5059632;28;20037;-59
2022/04/14 09:36:45;;;;;;;7.75;2.28;;;28.70;9.00;;;;;;5064006;28;20032;-59
2022/04/14 09:40:18;;;;;;;1.98;1.70;;;27.90;9.70;;;;;;5067059;28;20112;-59
2022/04/14 09:43:46;;;;;;;4.05;2.70;;;28.20;9.70;;;;;;5058944;28;20623;-59
2022/04/14 09:47:21;;;;;;;3.53;2.45;;;28.50;9.20;;;;;;5043750;28;20029;-60
2022/04/14 09:50:56;;;;;;;3.78;1.67;;;28.40;9.50;;;;;;5052000;28;20059;-60
2022/04/14 09:54:09;;;;;;;6.90;2.72;;;27.80;10.10;;;;;;5044110;28;20033;-60
2022/04/14 09:57:35;;;;;;;4.50;2.03;;;26.70;11.60;;;;;;5030333;28;20047;-59
2022/04/14 10:01:01;;;;;;;2.75;1.42;;;27.00;11.90;;;;;;5049996;28;20155;-60
2022/04/14 10:04:26;;;;;;;1.73;0.95;;;28.20;10.60;;;;;;5042867;28;20044;-60
2022/04/14 10:07:51;;;;;;;1.30;0.82;;;29.70;8.40;;;;;;5026173;28;20039;-60
2022/04/14 10:11:26;;;;;;;1.83;1.33;;;30.30;6.90;;;;;;5045470;28;20045;-59
2022/04/14 10:14:51;;;;;;;2.13;1.38;;;28.90;8.10;;;;;;5047572;28;20037;-59
2022/04/14 10:18:16;;;;;;;3.63;2.00;;;27.00;10.60;;;;;;5024802;28;20032;-60
2022/04/14 10:21:43;;;;;;;2.30;1.80;;;25.90;12.90;;;;;;5037226;28;20041;-59
2022/04/14 10:25:07;;;;;;;1.83;1.60;;;24.90;15.50;;;;;;5045756;28;20401;-59
2022/04/14 10:28:33;;;;;;;3.33;1.80;;;24.60;16.10;;;;;;5039096;28;20045;-59
2022/04/14 10:31:58;;;;;;;2.05;1.70;;;24.30;16.90;;;;;;5013243;28;20143;-59
2022/04/14 10:35:24;;;;;;;3.22;1.90;;;24.00;16.90;;;;;;5031579;28;20029;-59
2022/04/14 10:38:52;;;;;;;5.22;2.03;;;23.70;17.50;;;;;;5024644;28;20043;-59
2022/04/14 10:42:17;;;;;;;2.42;1.40;;;23.50;18.90;;;;;;5039428;28;20033;-59
2022/04/14 10:46:07;;;;;;;2.10;1.67;;;23.40;18.30;;;;;;5032101;28;20104;-59
2022/04/14 10:49:33;;;;;;;1.60;1.25;;;23.40;19.70;;;;;;5045364;28;20037;-59
2022/04/14 10:53:01;;;;;;;2.45;1.00;;;23.10;19.70;;;;;;5034370;28;20596;-59
2022/04/14 10:56:26;;;;;;;4.47;1.75;;;22.80;21.10;;;;;;5045454;28;20029;-59
2022/04/14 10:59:35;;;;;;;1.80;1.23;;;22.80;21.40;;;;;;5044495;28;20118;-59
2022/04/14 11:03:00;;;;;;;6.82;2.13;;;23.20;20.60;;;;;;5022315;28;20045;-59
2022/04/14 11:06:31;;;;;;;4.55;1.63;;;23.00;20.90;;;;;;5031045;28;20033;-60
2022/04/14 11:09:42;;;;;;;3.38;2.10;;;22.90;21.80;;;;;;5035850;28;20049;-60
2022/04/14 11:13:16;;;;;;;1.98;1.23;;;22.80;21.40;;;;;;5035925;28;20493;-60
2022/04/14 11:16:40;;;;;;;2.47;1.45;;;22.50;22.30;;;;;;5039194;28;20032;-60
2022/04/14 11:20:05;;;;;;;2.35;1.60;;;22.30;22.90;;;;;;5030930;28;20505;-59
2022/04/14 11:23:11;;;;;;;2.40;1.80;;;22.00;23.60;;;;;;5026958;28;20041;-59
2022/04/14 11:26:35;;;;;;;1.75;1.30;;;21.70;25.00;;;;;;5036098;28;20457;-59
2022/04/14 11:30:03;;;;;;;2.00;1.20;;;21.40;25.90;;;;;;5031844;28;20127;-59
2022/04/14 11:33:32;;;;;;;3.22;1.50;;;21.10;26.00;;;;;;5040215;28;20033;-59
2022/04/14 11:37:03;;;;;;;1.83;1.40;;;20.80;26.60;;;;;;5043666;28;20028;-59
2022/04/14 11:40:35;;;;;;;2.60;1.23;;;20.50;28.80;;;;;;5040790;28;20029;-59
2022/04/14 11:44:00;;;;;;;2.15;1.33;;;20.20;28.60;;;;;;5035140;28;20780;-59
2022/04/14 11:47:25;;;;;;;2.40;1.67;;;20.10;31.60;;;;;;5029917;28;20079;-59
2022/04/14 11:50:51;;;;;;;7.07;2.72;;;19.90;30.20;;;;;;5015600;28;20539;-59
2022/04/14 11:54:16;;;;;;;15.38;3.85;;;19.90;32.60;;;;;;5042209;28;20155;-59
2022/04/14 11:57:43;;;;;;;3.00;1.55;;;19.90;30.00;;;;;;5029832;28;20041;-59
2022/04/14 12:01:07;;;;;;;2.03;1.40;;;19.80;32.20;;;;;;5024077;28;20033;-59
2022/04/14 12:04:32;;;;;;;6.43;2.08;;;19.60;35.30;;;;;;5028299;28;20033;-60
2022/04/14 12:07:58;;;;;;;2.88;1.88;;;19.30;36.80;;;;;;5042792;28;20504;-59
2022/04/14 12:10:44;;;;;;;3.03;1.60;;;19.10;36.90;;;;;;5029083;28;20041;-60
2022/04/14 12:13:49;;;;;;;3.05;1.45;;;19.10;35.20;;;;;;5048442;28;20520;-60
2022/04/14 12:17:16;;;;;;;2.70;1.50;;;19.20;38.10;;;;;;5023361;28;20051;-59
2022/04/14 12:20:03;;;;;;;3.25;1.60;;;19.30;36.50;;;;;;5039055;28;20044;-59
2022/04/14 12:23:09;;;;;;;7.30;2.28;;;19.30;33.50;;;;;;5044026;28;20401;-59
2022/04/14 12:26:37;;;;;;;3.15;1.35;;;19.40;37.00;;;;;;5008411;28;20038;-59
2022/04/14 12:30:00;;;;;;;1.05;0.95;;;19.60;36.20;;;;;;5043852;28;20603;-59
2022/04/14 12:33:25;;;;;;;1.73;1.10;;;19.70;35.90;;;;;;5040153;28;20039;-59
2022/04/14 12:36:53;;;;;;;2.45;1.00;;;19.60;36.70;;;;;;5008166;28;20045;-59
2022/04/14 12:40:07;;;;;;;;;;;19.70;35.20;;;;;;5042047;28;20044;-61
2022/04/14 12:43:12;;;;;;;1.80;1.05;;;19.60;36.20;;;;;;5016862;28;20008;-70
2022/04/14 12:46:43;;;;;;;1.40;1.00;;;19.40;36.50;;;;;;5036993;28;20547;-70
2022/04/14 12:50:12;;;;;;;2.72;0.98;;;19.10;38.50;;;;;;5037819;28;20037;-69
2022/04/14 12:53:37;;;;;;;1.60;1.00;;;18.80;39.00;;;;;;5023534;28;20151;-69
2022/04/14 12:57:21;;;;;;;0.90;0.80;;;18.50;44.10;;;;;;5041022;28;20040;-70
2022/04/14 13:00:31;;;;;;;2.70;1.20;;;18.20;44.20;;;;;;5010970;28;20049;-69
2022/04/14 13:04:04;;;;;;;3.83;1.13;;;18.00;42.40;;;;;;5036739;28;20052;-71
2022/04/14 13:07:39;;;;;;;4.25;1.25;;;17.80;46.80;;;;;;5044360;28;20036;-70
2022/04/14 13:11:10;;;;;;;2.28;1.40;;;17.50;53.90;;;;;;5033170;28;20413;-65
2022/04/14 13:14:16;;;;;;;2.38;1.60;;;17.20;55.20;;;;;;5039019;28;20051;-65
2022/04/14 13:17:42;;;;;;;2.50;1.30;;;17.00;55.50;;;;;;5007660;28;20081;-65
2022/04/14 13:21:17;;;;;;;2.67;1.33;;;16.80;53.40;;;;;;5007581;28;20522;-64
2022/04/14 13:24:41;;;;;;;1.48;1.10;;;16.60;61.30;;;;;;5020881;28;20041;-65
2022/04/14 13:28:07;;;;;;;2.17;1.00;;;16.40;63.30;;;;;;5027445;28;20567;-64
2022/04/14 13:31:32;;;;;;;3.42;1.10;;;16.20;61.70;;;;;;5042770;28;20025;-65
2022/04/14 13:34:57;;;;;;;1.85;0.98;;;16.00;64.80;;;;;;5016740;28;20043;-65
2022/04/14 13:38:22;;;;;;;1.13;0.98;;;15.80;67.60;;;;;;5011036;28;20041;-65
2022/04/14 13:41:48;;;;;;;1.73;1.02;;;15.70;81.20;;;;;;5039690;28;20045;-65
2022/04/14 13:45:13;;;;;;;1.80;1.20;;;15.50;83.50;;;;;;5030673;28;20370;-65
2022/04/14 13:48:39;;;;;;;3.03;1.33;;;15.40;98.10;;;;;;5045466;28;20041;-65
2022/04/14 13:52:04;;;;;;;2.97;1.13;;;15.20;90.00;;;;;;5033593;28;20451;-65
2022/04/14 13:55:32;;;;;;;2.70;1.40;;;15.10;98.20;;;;;;5011675;28;20044;-65
2022/04/14 13:58:54;;;;;;;1.98;1.48;;;14.90;99.90;;;;;;5050079;28;20043;-66
2022/04/14 14:02:20;;;;;;;1.33;1.23;;;14.80;99.70;;;;;;5040572;28;20060;-63
2022/04/14 14:05:45;;;;;;;1.63;1.20;;;14.70;99.90;;;;;;5031525;28;20200;-64
2022/04/14 14:09:11;;;;;;;4.80;1.45;;;14.50;99.90;;;;;;5049076;28;20049;-64
2022/04/14 14:12:39;;;;;;;4.57;1.38;;;14.50;99.90;;;;;;5039873;28;20037;-64
2022/04/14 14:16:01;;;;;;;2.38;1.52;;;14.50;99.90;;;;;;5028880;28;20048;-63
2022/04/14 14:19:27;;;;;;;1.60;1.40;;;14.40;99.90;;;;;;5030542;28;20392;-63
2022/04/14 14:22:52;;;;;;;13.57;2.55;;;14.50;99.90;;;;;;5030939;28;20060;-64
2022/04/14 14:26:17;;;;;;;3.72;1.38;;;14.40;99.90;;;;;;5035333;28;20116;-63
2022/04/14 14:29:45;;;;;;;2.00;1.67;;;14.40;99.90;;;;;;5048400;28;20098;-64
2022/04/14 14:33:08;;;;;;;3.35;1.75;;;14.30;99.90;;;;;;5027447;28;20502;-63
2022/04/14 14:36:33;;;;;;;1.67;1.10;;;14.20;99.90;;;;;;5042336;28;20056;-63
2022/04/14 14:40:00;;;;;;;1.90;1.25;;;14.20;99.90;;;;;;5033495;28;20489;-63
2022/04/14 14:43:24;;;;;;;2.83;1.63;;;14.10;99.90;;;;;;5043358;28;20033;-63
2022/04/14 14:46:50;;;;;;;2.67;1.15;;;14.00;99.90;;;;;;5039554;28;20025;-64
2022/04/14 14:50:15;;;;;;;4.43;1.50;;;14.00;99.90;;;;;;5034094;28;20041;-63
2022/04/14 14:53:40;;;;;;;2.72;1.20;;;14.00;99.90;;;;;;5042645;28;20079;-64
2022/04/14 14:57:06;;;;;;;1.65;1.17;;;13.90;99.90;;;;;;5021837;28;20041;-63
2022/04/14 15:00:31;;;;;;;2.88;1.60;;;13.90;99.90;;;;;;5016451;28;20043;-63
2022/04/14 15:03:56;;;;;;;2.28;1.40;;;13.90;99.90;;;;;;5035864;28;20030;-63
2022/04/14 15:07:24;;;;;;;1.95;1.20;;;13.90;99.90;;;;;;5043911;28;20039;-63
2022/04/14 15:10:47;;;;;;;2.00;1.05;;;14.00;99.90;;;;;;5044969;28;20033;-63
2022/04/14 15:14:13;;;;;;;2.13;0.90;;;14.00;99.90;;;;;;5030524;28;20044;-64
2022/04/14 15:17:38;;;;;;;3.05;1.20;;;14.00;99.90;;;;;;5044145;28;20044;-63
2022/04/14 15:21:03;;;;;;;2.35;0.90;;;13.90;99.90;;;;;;5043981;28;20041;-63
2022/04/14 15:24:29;;;;;;;0.82;0.60;;;13.90;99.90;;;;;;5027680;28;20060;-64
2022/04/14 15:27:54;;;;;;;2.25;0.90;;;13.90;99.90;;;;;;5046242;28;20083;-63
2022/04/14 15:31:19;;;;;;;1.58;0.90;;;13.80;99.90;;;;;;5047205;28;20059;-63
2022/04/14 15:34:45;;;;;;;1.13;1.02;;;13.80;99.90;;;;;;5032584;28;20551;-61
2022/04/14 15:38:10;;;;;;;1.60;1.27;;;13.80;99.90;;;;;;5047551;28;20053;-65
2022/04/14 15:41:36;;;;;;;2.15;1.60;;;13.70;99.90;;;;;;5038255;28;20056;-64
2022/04/14 15:45:01;;;;;;;3.25;1.80;;;13.70;99.90;;;;;;5026939;28;20059;-63
2022/04/14 15:48:26;;;;;;;3.22;1.55;;;13.60;99.90;;;;;;5041423;28;20041;-63
2022/04/14 15:51:52;;;;;;;2.13;1.63;;;13.60;99.90;;;;;;5030107;28;20709;-64
2022/04/14 15:55:17;;;;;;;2.60;1.60;;;13.50;99.90;;;;;;5038937;28;20048;-64
2022/04/14 15:58:42;;;;;;;3.00;2.15;;;13.40;99.90;;;;;;5041031;28;20139;-64
2022/04/14 16:02:08;;;;;;;3.33;1.65;;;13.40;99.90;;;;;;5028061;28;20038;-64
2022/04/14 16:05:33;;;;;;;2.03;1.52;;;13.40;99.90;;;;;;5043485;28;20630;-63
2022/04/14 16:09:00;;;;;;;3.13;2.15;;;13.40;99.90;;;;;;5035338;28;20025;-65
2022/04/14 16:12:24;;;;;;;2.17;1.85;;;13.30;99.90;;;;;;5028022;28;20033;-63
2022/04/14 16:15:49;;;;;;;2.53;1.90;;;13.30;99.90;;;;;;5044300;28;20041;-66
2022/04/14 16:19:15;;;;;;;2.80;1.80;;;13.30;99.90;;;;;;5043003;28;20565;-66
2022/04/14 16:22:41;;;;;;;5.70;2.05;;;13.20;99.90;;;;;;5036969;28;20049;-66
2022/04/14 16:26:05;;;;;;;2.85;2.35;;;13.20;99.90;;;;;;5046241;28;20033;-65
2022/04/14 16:29:31;;;;;;;5.18;2.47;;;13.20;99.90;;;;;;5025753;28;20038;-65
2022/04/14 16:32:59;;;;;;;3.40;2.35;;;13.20;99.90;;;;;;5041562;28;20091;-65
2022/04/14 16:36:24;;;;;;;3.65;2.67;;;13.20;99.90;;;;;;5009533;28;20041;-65
2022/04/14 16:39:50;;;;;;;4.82;2.50;;;13.10;99.90;;;;;;5044325;28;20511;-65
2022/04/14 16:43:15;;;;;;;1.90;1.70;;;13.10;99.90;;;;;;5043538;28;20029;-65
2022/04/14 16:46:40;;;;;;;2.95;2.15;;;13.10;99.90;;;;;;5009526;28;20033;-65
2022/04/14 16:50:06;;;;;;;4.80;2.63;;;13.10;99.90;;;;;;5034560;28;20106;-65
2022/04/14 16:53:31;;;;;;;2.40;2.20;;;13.20;99.90;;;;;;5044082;28;20238;-65
2022/04/14 16:56:57;;;;;;;4.95;2.90;;;13.20;99.90;;;;;;5045518;28;20431;-66
2022/04/14 17:00:25;;;;;;;5.50;3.05;;;13.30;99.90;;;;;;5044254;28;20048;-65
2022/04/14 17:03:50;;;;;;;5.05;2.55;;;13.40;99.90;;;;;;5046967;28;20740;-65
2022/04/14 17:07:16;;;;;;;4.32;2.80;;;13.40;99.90;;;;;;5043080;28;20044;-65
2022/04/14 17:10:41;;;;;;;5.13;2.83;;;13.40;99.90;;;;;;5038143;28;20041;-63
2022/04/14 17:14:06;;;;;;;6.25;3.05;;;13.30;99.90;;;;;;5027560;28;20037;-63
2022/04/14 17:17:32;;;;;;;2.20;2.00;;;13.20;99.90;;;;;;5049521;28;20090;-62
2022/04/14 17:20:57;;;;;;;4.22;2.40;;;13.10;99.90;;;;;;5038193;28;20391;-62